sensor_id;sensor_type;location;lat;lon;timestamp;temperature;humidity
12819;DHT22;6474;53.474;9.894;2024-03-25T00:01:10;6.80;87.50
12819;DHT22;6474;53.474;9.894;2024-03-25T00:03:36;6.80;87.40
12819;DHT22;6474;53.474;9.894;2024-03-25T00:06:03;6.70;87.30
12819;DHT22;6474;53.474;9.894;2024-03-25T00:08:30;6.70;87.30
12819;DHT22;6474;53.474;9.894;2024-03-25T00:10:56;6.70;87.30
12819;DHT22;6474;53.474;9.894;2024-03-25T00:13:23;6.70;87.30
12819;DHT22;6474;53.474;9.894;2024-03-25T00:15:50;6.70;87.30
12819;DHT22;6474;53.474;9.894;2024-03-25T00:18:17;6.70;87.40
12819;DHT22;6474;53.474;9.894;2024-03-25T00:20:45;6.60;87.20
12819;DHT22;6474;53.474;9.894;2024-03-25T00:23:12;6.60;87.30
12819;DHT22;6474;53.474;9.894;2024-03-25T00:25:39;6.60;87.30
12819;DHT22;6474;53.474;9.894;2024-03-25T00:28:05;6.60;87.30
12819;DHT22;6474;53.474;9.894;2024-03-25T00:30:32;6.60;87.30
12819;DHT22;6474;53.474;9.894;2024-03-25T00:32:58;6.60;87.30
12819;DHT22;6474;53.474;9.894;2024-03-25T00:35:26;6.60;87.30
12819;DHT22;6474;53.474;9.894;2024-03-25T00:37:53;6.60;87.30
12819;DHT22;6474;53.474;9.894;2024-03-25T00:40:20;6.50;87.20
12819;DHT22;6474;53.474;9.894;2024-03-25T00:42:46;6.50;87.30
12819;DHT22;6474;53.474;9.894;2024-03-25T00:45:13;6.50;87.30
12819;DHT22;6474;53.474;9.894;2024-03-25T00:47:39;6.50;87.40
12819;DHT22;6474;53.474;9.894;2024-03-25T00:50:08;6.50;87.40
12819;DHT22;6474;53.474;9.894;2024-03-25T00:52:36;6.50;87.40
12819;DHT22;6474;53.474;9.894;2024-03-25T00:55:04;6.60;87.60
12819;DHT22;6474;53.474;9.894;2024-03-25T00:57:30;6.60;87.50
12819;DHT22;6474;53.474;9.894;2024-03-25T00:59:58;6.60;87.50
12819;DHT22;6474;53.474;9.894;2024-03-25T01:02:24;6.60;87.50
12819;DHT22;6474;53.474;9.894;2024-03-25T01:04:53;6.60;87.50
12819;DHT22;6474;53.474;9.894;2024-03-25T01:07:20;6.60;87.60
12819;DHT22;6474;53.474;9.894;2024-03-25T01:09:48;6.60;87.50
12819;DHT22;6474;53.474;9.894;2024-03-25T01:12:14;6.60;87.50
12819;DHT22;6474;53.474;9.894;2024-03-25T01:14:41;6.60;87.50
12819;DHT22;6474;53.474;9.894;2024-03-25T01:17:07;6.60;87.60
12819;DHT22;6474;53.474;9.894;2024-03-25T01:19:34;6.50;87.50
12819;DHT22;6474;53.474;9.894;2024-03-25T01:22:00;6.60;87.60
12819;DHT22;6474;53.474;9.894;2024-03-25T01:24:27;6.60;87.60
12819;DHT22;6474;53.474;9.894;2024-03-25T01:26:54;6.60;87.70
12819;DHT22;6474;53.474;9.894;2024-03-25T01:29:23;6.60;87.60
12819;DHT22;6474;53.474;9.894;2024-03-25T01:31:49;6.60;87.60
12819;DHT22;6474;53.474;9.894;2024-03-25T01:34:17;6.60;87.60
12819;DHT22;6474;53.474;9.894;2024-03-25T01:36:43;6.60;87.60
12819;DHT22;6474;53.474;9.894;2024-03-25T01:39:10;6.60;87.60
12819;DHT22;6474;53.474;9.894;2024-03-25T01:41:36;6.60;87.60
12819;DHT22;6474;53.474;9.894;2024-03-25T01:44:05;6.60;87.60
12819;DHT22;6474;53.474;9.894;2024-03-25T01:46:31;6.60;87.60
12819;DHT22;6474;53.474;9.894;2024-03-25T01:48:58;6.60;87.60
12819;DHT22;6474;53.474;9.894;2024-03-25T01:51:24;6.60;87.60
12819;DHT22;6474;53.474;9.894;2024-03-25T01:53:52;6.60;87.60
12819;DHT22;6474;53.474;9.894;2024-03-25T01:56:21;6.60;87.50
12819;DHT22;6474;53.474;9.894;2024-03-25T01:58:49;6.60;87.50
12819;DHT22;6474;53.474;9.894;2024-03-25T02:01:18;6.60;87.60
12819;DHT22;6474;53.474;9.894;2024-03-25T02:03:45;6.60;87.50
12819;DHT22;6474;53.474;9.894;2024-03-25T02:06:14;6.60;87.60
12819;DHT22;6474;53.474;9.894;2024-03-25T02:08:42;6.60;87.60
12819;DHT22;6474;53.474;9.894;2024-03-25T02:11:08;6.60;87.60
12819;DHT22;6474;53.474;9.894;2024-03-25T02:13:37;6.60;87.60
12819;DHT22;6474;53.474;9.894;2024-03-25T02:16:04;6.60;87.60
12819;DHT22;6474;53.474;9.894;2024-03-25T02:18:32;6.60;87.60
12819;DHT22;6474;53.474;9.894;2024-03-25T02:20:59;6.60;87.60
12819;DHT22;6474;53.474;9.894;2024-03-25T02:23:26;6.60;87.50
12819;DHT22;6474;53.474;9.894;2024-03-25T02:25:54;6.60;87.50
12819;DHT22;6474;53.474;9.894;2024-03-25T02:28:21;6.60;87.50
12819;DHT22;6474;53.474;9.894;2024-03-25T02:30:47;6.60;87.50
12819;DHT22;6474;53.474;9.894;2024-03-25T02:33:14;6.60;87.50
12819;DHT22;6474;53.474;9.894;2024-03-25T02:35:41;6.60;87.50
12819;DHT22;6474;53.474;9.894;2024-03-25T02:38:09;6.60;87.60
12819;DHT22;6474;53.474;9.894;2024-03-25T02:40:37;6.60;87.60
12819;DHT22;6474;53.474;9.894;2024-03-25T02:43:05;6.50;87.50
12819;DHT22;6474;53.474;9.894;2024-03-25T02:45:33;6.60;87.60
12819;DHT22;6474;53.474;9.894;2024-03-25T02:48:00;6.60;87.70
12819;DHT22;6474;53.474;9.894;2024-03-25T02:50:26;6.60;87.60
12819;DHT22;6474;53.474;9.894;2024-03-25T02:52:53;6.60;87.60
12819;DHT22;6474;53.474;9.894;2024-03-25T02:55:19;6.60;87.60
12819;DHT22;6474;53.474;9.894;2024-03-25T02:57:47;6.50;87.50
12819;DHT22;6474;53.474;9.894;2024-03-25T03:00:15;6.50;87.60
12819;DHT22;6474;53.474;9.894;2024-03-25T03:02:43;6.50;87.50
12819;DHT22;6474;53.474;9.894;2024-03-25T03:05:09;6.50;87.50
12819;DHT22;6474;53.474;9.894;2024-03-25T03:07:37;6.50;87.50
12819;DHT22;6474;53.474;9.894;2024-03-25T03:10:03;6.50;87.50
12819;DHT22;6474;53.474;9.894;2024-03-25T03:12:30;6.40;87.40
12819;DHT22;6474;53.474;9.894;2024-03-25T03:14:56;6.40;87.50
12819;DHT22;6474;53.474;9.894;2024-03-25T03:17:25;6.40;87.50
12819;DHT22;6474;53.474;9.894;2024-03-25T03:19:50;6.40;87.60
12819;DHT22;6474;53.474;9.894;2024-03-25T03:22:17;6.40;87.60
12819;DHT22;6474;53.474;9.894;2024-03-25T03:24:43;6.40;87.60
12819;DHT22;6474;53.474;9.894;2024-03-25T03:27:10;6.40;87.60
12819;DHT22;6474;53.474;9.894;2024-03-25T03:29:36;6.40;87.60
12819;DHT22;6474;53.474;9.894;2024-03-25T03:32:03;6.40;87.50
12819;DHT22;6474;53.474;9.894;2024-03-25T03:34:30;6.40;87.50
12819;DHT22;6474;53.474;9.894;2024-03-25T03:36:57;6.40;87.50
12819;DHT22;6474;53.474;9.894;2024-03-25T03:39:23;6.40;87.40
12819;DHT22;6474;53.474;9.894;2024-03-25T03:41:50;6.40;87.40
12819;DHT22;6474;53.474;9.894;2024-03-25T03:44:16;6.30;87.30
12819;DHT22;6474;53.474;9.894;2024-03-25T03:46:44;6.30;87.30
12819;DHT22;6474;53.474;9.894;2024-03-25T03:49:10;6.30;87.30
12819;DHT22;6474;53.474;9.894;2024-03-25T03:51:39;6.30;87.30
12819;DHT22;6474;53.474;9.894;2024-03-25T03:54:04;6.30;87.30
12819;DHT22;6474;53.474;9.894;2024-03-25T03:56:31;6.30;87.40
12819;DHT22;6474;53.474;9.894;2024-03-25T03:58:57;6.30;87.30
12819;DHT22;6474;53.474;9.894;2024-03-25T04:01:26;6.30;87.30
12819;DHT22;6474;53.474;9.894;2024-03-25T04:03:51;6.30;87.30
12819;DHT22;6474;53.474;9.894;2024-03-25T04:06:18;6.30;87.30
12819;DHT22;6474;53.474;9.894;2024-03-25T04:08:46;6.30;87.30
12819;DHT22;6474;53.474;9.894;2024-03-25T04:11:13;6.30;87.20
12819;DHT22;6474;53.474;9.894;2024-03-25T04:13:39;6.30;87.20
12819;DHT22;6474;53.474;9.894;2024-03-25T04:16:06;6.30;87.20
12819;DHT22;6474;53.474;9.894;2024-03-25T04:18:33;6.20;87.10
12819;DHT22;6474;53.474;9.894;2024-03-25T04:21:00;6.20;87.10
12819;DHT22;6474;53.474;9.894;2024-03-25T04:23:26;6.20;87.20
12819;DHT22;6474;53.474;9.894;2024-03-25T04:25:55;6.20;87.20
12819;DHT22;6474;53.474;9.894;2024-03-25T04:28:21;6.20;87.20
12819;DHT22;6474;53.474;9.894;2024-03-25T04:30:52;6.20;87.20
12819;DHT22;6474;53.474;9.894;2024-03-25T04:33:18;6.20;87.10
12819;DHT22;6474;53.474;9.894;2024-03-25T04:35:46;6.10;87.00
12819;DHT22;6474;53.474;9.894;2024-03-25T04:38:12;6.20;87.10
12819;DHT22;6474;53.474;9.894;2024-03-25T04:40:38;6.10;86.90
12819;DHT22;6474;53.474;9.894;2024-03-25T04:43:06;6.10;86.80
12819;DHT22;6474;53.474;9.894;2024-03-25T04:45:32;6.10;86.70
12819;DHT22;6474;53.474;9.894;2024-03-25T04:47:58;6.00;86.50
12819;DHT22;6474;53.474;9.894;2024-03-25T04:50:24;6.00;86.60
12819;DHT22;6474;53.474;9.894;2024-03-25T04:52:50;5.90;86.50
12819;DHT22;6474;53.474;9.894;2024-03-25T04:55:16;5.90;86.80
12819;DHT22;6474;53.474;9.894;2024-03-25T04:57:42;5.80;86.70
12819;DHT22;6474;53.474;9.894;2024-03-25T05:00:11;5.70;86.70
12819;DHT22;6474;53.474;9.894;2024-03-25T05:02:37;5.80;86.90
12819;DHT22;6474;53.474;9.894;2024-03-25T05:05:04;5.70;87.00
12819;DHT22;6474;53.474;9.894;2024-03-25T05:07:30;5.80;87.20
12819;DHT22;6474;53.474;9.894;2024-03-25T05:09:56;5.80;87.20
12819;DHT22;6474;53.474;9.894;2024-03-25T05:12:22;5.80;87.20
12819;DHT22;6474;53.474;9.894;2024-03-25T05:14:48;5.80;87.20
12819;DHT22;6474;53.474;9.894;2024-03-25T05:17:15;5.90;87.30
12819;DHT22;6474;53.474;9.894;2024-03-25T05:19:41;5.80;87.10
12819;DHT22;6474;53.474;9.894;2024-03-25T05:22:07;5.90;87.10
12819;DHT22;6474;53.474;9.894;2024-03-25T05:24:33;5.90;87.00
12819;DHT22;6474;53.474;9.894;2024-03-25T05:26:59;5.80;86.80
12819;DHT22;6474;53.474;9.894;2024-03-25T05:29:25;5.80;86.80
12819;DHT22;6474;53.474;9.894;2024-03-25T05:31:59;5.80;86.80
12819;DHT22;6474;53.474;9.894;2024-03-25T05:34:27;5.80;86.70
12819;DHT22;6474;53.474;9.894;2024-03-25T05:36:54;5.70;86.60
12819;DHT22;6474;53.474;9.894;2024-03-25T05:39:20;5.70;86.70
12819;DHT22;6474;53.474;9.894;2024-03-25T05:41:46;5.70;86.70
12819;DHT22;6474;53.474;9.894;2024-03-25T05:44:12;5.70;86.80
12819;DHT22;6474;53.474;9.894;2024-03-25T05:46:38;5.70;86.80
12819;DHT22;6474;53.474;9.894;2024-03-25T05:49:05;5.70;86.80
12819;DHT22;6474;53.474;9.894;2024-03-25T05:51:32;5.70;86.70
12819;DHT22;6474;53.474;9.894;2024-03-25T05:53:59;5.80;86.80
12819;DHT22;6474;53.474;9.894;2024-03-25T05:56:25;5.80;86.80
12819;DHT22;6474;53.474;9.894;2024-03-25T05:58:51;5.80;87.00
12819;DHT22;6474;53.474;9.894;2024-03-25T06:01:17;5.90;87.20
12819;DHT22;6474;53.474;9.894;2024-03-25T06:03:43;6.00;87.20
12819;DHT22;6474;53.474;9.894;2024-03-25T06:06:09;6.00;87.00
12819;DHT22;6474;53.474;9.894;2024-03-25T06:08:36;6.10;87.10
12819;DHT22;6474;53.474;9.894;2024-03-25T06:11:03;6.10;87.10
12819;DHT22;6474;53.474;9.894;2024-03-25T06:13:29;6.20;87.20
12819;DHT22;6474;53.474;9.894;2024-03-25T06:15:55;6.20;87.20
12819;DHT22;6474;53.474;9.894;2024-03-25T06:18:21;6.30;87.20
12819;DHT22;6474;53.474;9.894;2024-03-25T06:20:47;6.30;87.10
12819;DHT22;6474;53.474;9.894;2024-03-25T06:23:22;6.40;87.10
12819;DHT22;6474;53.474;9.894;2024-03-25T06:25:51;6.30;87.00
12819;DHT22;6474;53.474;9.894;2024-03-25T06:28:17;6.40;87.10
12819;DHT22;6474;53.474;9.894;2024-03-25T06:30:46;6.40;87.10
12819;DHT22;6474;53.474;9.894;2024-03-25T06:33:30;6.40;87.30
12819;DHT22;6474;53.474;9.894;2024-03-25T06:36:18;6.40;87.30
12819;DHT22;6474;53.474;9.894;2024-03-25T06:38:44;6.40;87.20
12819;DHT22;6474;53.474;9.894;2024-03-25T06:41:12;6.50;87.40
12819;DHT22;6474;53.474;9.894;2024-03-25T06:43:38;6.50;87.30
12819;DHT22;6474;53.474;9.894;2024-03-25T06:46:04;6.50;87.30
12819;DHT22;6474;53.474;9.894;2024-03-25T06:48:30;6.50;87.30
12819;DHT22;6474;53.474;9.894;2024-03-25T06:50:57;6.50;87.20
12819;DHT22;6474;53.474;9.894;2024-03-25T06:53:23;6.40;87.10
12819;DHT22;6474;53.474;9.894;2024-03-25T06:55:54;6.40;87.20
12819;DHT22;6474;53.474;9.894;2024-03-25T06:58:22;6.40;87.30
12819;DHT22;6474;53.474;9.894;2024-03-25T07:00:49;6.40;87.40
12819;DHT22;6474;53.474;9.894;2024-03-25T07:03:15;6.40;87.40
12819;DHT22;6474;53.474;9.894;2024-03-25T07:05:43;6.50;87.50
12819;DHT22;6474;53.474;9.894;2024-03-25T07:08:10;6.50;87.50
12819;DHT22;6474;53.474;9.894;2024-03-25T07:10:36;6.50;87.50
12819;DHT22;6474;53.474;9.894;2024-03-25T07:13:02;6.50;87.50
12819;DHT22;6474;53.474;9.894;2024-03-25T07:15:29;6.60;87.60
12819;DHT22;6474;53.474;9.894;2024-03-25T07:17:55;6.60;87.60
12819;DHT22;6474;53.474;9.894;2024-03-25T07:20:21;6.60;87.60
12819;DHT22;6474;53.474;9.894;2024-03-25T07:22:47;6.70;87.70
12819;DHT22;6474;53.474;9.894;2024-03-25T07:25:13;6.70;87.70
12819;DHT22;6474;53.474;9.894;2024-03-25T07:27:39;6.80;87.80
12819;DHT22;6474;53.474;9.894;2024-03-25T07:30:06;6.80;87.70
12819;DHT22;6474;53.474;9.894;2024-03-25T07:32:34;6.80;87.50
12819;DHT22;6474;53.474;9.894;2024-03-25T07:35:02;6.90;87.50
12819;DHT22;6474;53.474;9.894;2024-03-25T07:37:28;7.00;87.60
12819;DHT22;6474;53.474;9.894;2024-03-25T07:39:54;7.00;87.70
12819;DHT22;6474;53.474;9.894;2024-03-25T07:42:20;7.10;87.80
12819;DHT22;6474;53.474;9.894;2024-03-25T07:44:45;7.20;87.90
12819;DHT22;6474;53.474;9.894;2024-03-25T07:47:11;7.20;87.80
12819;DHT22;6474;53.474;9.894;2024-03-25T07:49:39;7.20;87.70
12819;DHT22;6474;53.474;9.894;2024-03-25T07:52:05;7.20;87.70
12819;DHT22;6474;53.474;9.894;2024-03-25T07:54:31;7.30;87.90
12819;DHT22;6474;53.474;9.894;2024-03-25T07:56:57;7.30;87.90
12819;DHT22;6474;53.474;9.894;2024-03-25T07:59:23;7.30;87.80
12819;DHT22;6474;53.474;9.894;2024-03-25T08:01:49;7.30;87.80
12819;DHT22;6474;53.474;9.894;2024-03-25T08:04:15;7.30;87.80
12819;DHT22;6474;53.474;9.894;2024-03-25T08:06:43;7.30;88.00
12819;DHT22;6474;53.474;9.894;2024-03-25T08:09:09;7.40;88.20
12819;DHT22;6474;53.474;9.894;2024-03-25T08:11:35;7.40;88.20
12819;DHT22;6474;53.474;9.894;2024-03-25T08:14:01;7.40;88.10
12819;DHT22;6474;53.474;9.894;2024-03-25T08:16:27;7.50;88.00
12819;DHT22;6474;53.474;9.894;2024-03-25T08:18:53;7.50;88.00
12819;DHT22;6474;53.474;9.894;2024-03-25T08:21:19;7.50;87.90
12819;DHT22;6474;53.474;9.894;2024-03-25T08:23:46;7.50;87.90
12819;DHT22;6474;53.474;9.894;2024-03-25T08:26:13;7.50;87.90
12819;DHT22;6474;53.474;9.894;2024-03-25T08:28:39;7.50;88.00
12819;DHT22;6474;53.474;9.894;2024-03-25T08:31:05;7.50;88.00
12819;DHT22;6474;53.474;9.894;2024-03-25T08:33:31;7.50;87.90
12819;DHT22;6474;53.474;9.894;2024-03-25T08:35:57;7.60;87.90
12819;DHT22;6474;53.474;9.894;2024-03-25T08:38:23;7.60;88.00
12819;DHT22;6474;53.474;9.894;2024-03-25T08:40:51;7.70;88.40
12819;DHT22;6474;53.474;9.894;2024-03-25T08:43:17;7.90;88.80
12819;DHT22;6474;53.474;9.894;2024-03-25T08:45:43;8.10;88.80
12819;DHT22;6474;53.474;9.894;2024-03-25T08:48:09;8.10;88.30
12819;DHT22;6474;53.474;9.894;2024-03-25T08:50:35;8.20;88.30
12819;DHT22;6474;53.474;9.894;2024-03-25T08:53:03;8.20;88.30
12819;DHT22;6474;53.474;9.894;2024-03-25T08:55:29;8.20;88.30
12819;DHT22;6474;53.474;9.894;2024-03-25T08:57:56;8.20;88.40
12819;DHT22;6474;53.474;9.894;2024-03-25T09:00:23;8.30;88.50
12819;DHT22;6474;53.474;9.894;2024-03-25T09:02:49;8.30;88.50
12819;DHT22;6474;53.474;9.894;2024-03-25T09:05:15;8.40;88.50
12819;DHT22;6474;53.474;9.894;2024-03-25T09:07:41;8.50;88.50
12819;DHT22;6474;53.474;9.894;2024-03-25T09:10:08;8.50;88.40
12819;DHT22;6474;53.474;9.894;2024-03-25T09:12:52;8.50;88.40
12819;DHT22;6474;53.474;9.894;2024-03-25T09:15:20;8.50;88.40
12819;DHT22;6474;53.474;9.894;2024-03-25T09:17:46;8.60;88.40
12819;DHT22;6474;53.474;9.894;2024-03-25T09:20:12;8.60;88.40
12819;DHT22;6474;53.474;9.894;2024-03-25T09:22:42;8.60;88.40
12819;DHT22;6474;53.474;9.894;2024-03-25T09:25:08;8.60;88.40
12819;DHT22;6474;53.474;9.894;2024-03-25T09:27:34;8.70;88.50
12819;DHT22;6474;53.474;9.894;2024-03-25T09:30:00;8.60;88.40
12819;DHT22;6474;53.474;9.894;2024-03-25T09:32:28;8.60;88.40
12819;DHT22;6474;53.474;9.894;2024-03-25T09:34:54;8.60;88.40
12819;DHT22;6474;53.474;9.894;2024-03-25T09:37:20;8.60;88.40
12819;DHT22;6474;53.474;9.894;2024-03-25T09:39:47;8.70;88.60
12819;DHT22;6474;53.474;9.894;2024-03-25T09:42:15;8.80;88.60
12819;DHT22;6474;53.474;9.894;2024-03-25T09:44:44;8.90;88.70
12819;DHT22;6474;53.474;9.894;2024-03-25T09:47:11;9.00;88.70
12819;DHT22;6474;53.474;9.894;2024-03-25T09:49:40;9.10;88.60
12819;DHT22;6474;53.474;9.894;2024-03-25T09:52:07;9.10;88.50
12819;DHT22;6474;53.474;9.894;2024-03-25T09:54:34;9.10;88.40
12819;DHT22;6474;53.474;9.894;2024-03-25T09:57:01;9.10;88.30
12819;DHT22;6474;53.474;9.894;2024-03-25T09:59:28;9.00;88.20
12819;DHT22;6474;53.474;9.894;2024-03-25T10:01:54;8.90;88.10
12819;DHT22;6474;53.474;9.894;2024-03-25T10:04:20;8.80;88.10
12819;DHT22;6474;53.474;9.894;2024-03-25T10:06:47;8.80;88.20
12819;DHT22;6474;53.474;9.894;2024-03-25T10:09:19;8.80;88.10
12819;DHT22;6474;53.474;9.894;2024-03-25T10:11:47;8.70;88.00
12819;DHT22;6474;53.474;9.894;2024-03-25T10:14:15;8.70;87.90
12819;DHT22;6474;53.474;9.894;2024-03-25T10:16:41;8.80;88.10
12819;DHT22;6474;53.474;9.894;2024-03-25T10:19:07;8.90;88.20
12819;DHT22;6474;53.474;9.894;2024-03-25T10:21:33;9.10;88.40
12819;DHT22;6474;53.474;9.894;2024-03-25T10:24:01;9.30;88.60
12819;DHT22;6474;53.474;9.894;2024-03-25T10:26:31;9.50;88.40
12819;DHT22;6474;53.474;9.894;2024-03-25T10:29:01;9.50;88.00
12819;DHT22;6474;53.474;9.894;2024-03-25T10:31:28;9.50;88.00
12819;DHT22;6474;53.474;9.894;2024-03-25T10:33:54;9.40;87.60
12819;DHT22;6474;53.474;9.894;2024-03-25T10:36:21;9.20;87.40
12819;DHT22;6474;53.474;9.894;2024-03-25T10:38:49;9.10;87.60
12819;DHT22;6474;53.474;9.894;2024-03-25T10:41:18;9.00;87.80
12819;DHT22;6474;53.474;9.894;2024-03-25T10:43:46;9.00;88.10
12819;DHT22;6474;53.474;9.894;2024-03-25T10:46:17;9.10;88.40
12819;DHT22;6474;53.474;9.894;2024-03-25T10:48:50;9.20;88.60
12819;DHT22;6474;53.474;9.894;2024-03-25T10:51:20;9.30;88.60
12819;DHT22;6474;53.474;9.894;2024-03-25T10:53:48;9.40;88.30
12819;DHT22;6474;53.474;9.894;2024-03-25T10:56:15;9.50;88.10
12819;DHT22;6474;53.474;9.894;2024-03-25T10:58:43;9.60;88.10
12819;DHT22;6474;53.474;9.894;2024-03-25T11:01:10;9.70;88.10
12819;DHT22;6474;53.474;9.894;2024-03-25T11:03:37;9.80;87.60
12819;DHT22;6474;53.474;9.894;2024-03-25T11:06:03;9.80;87.40
12819;DHT22;6474;53.474;9.894;2024-03-25T11:08:31;9.70;87.40
12819;DHT22;6474;53.474;9.894;2024-03-25T11:10:58;9.70;88.40
12819;DHT22;6474;53.474;9.894;2024-03-25T11:13:27;9.80;88.00
12819;DHT22;6474;53.474;9.894;2024-03-25T11:15:54;10.00;86.80
12819;DHT22;6474;53.474;9.894;2024-03-25T11:18:23;10.10;86.70
12819;DHT22;6474;53.474;9.894;2024-03-25T11:21:00;10.10;86.50
12819;DHT22;6474;53.474;9.894;2024-03-25T11:23:26;10.10;86.50
12819;DHT22;6474;53.474;9.894;2024-03-25T11:25:55;10.10;86.50
12819;DHT22;6474;53.474;9.894;2024-03-25T11:28:27;10.10;86.40
12819;DHT22;6474;53.474;9.894;2024-03-25T11:30:55;10.10;86.20
12819;DHT22;6474;53.474;9.894;2024-03-25T11:33:22;10.10;86.10
12819;DHT22;6474;53.474;9.894;2024-03-25T11:35:48;10.10;86.30
12819;DHT22;6474;53.474;9.894;2024-03-25T11:38:14;10.20;86.50
12819;DHT22;6474;53.474;9.894;2024-03-25T11:40:43;10.40;86.70
12819;DHT22;6474;53.474;9.894;2024-03-25T11:43:18;10.50;86.70
12819;DHT22;6474;53.474;9.894;2024-03-25T11:45:46;10.60;86.50
12819;DHT22;6474;53.474;9.894;2024-03-25T11:48:15;10.70;86.50
12819;DHT22;6474;53.474;9.894;2024-03-25T11:50:45;10.70;86.40
12819;DHT22;6474;53.474;9.894;2024-03-25T11:53:13;10.70;86.40
12819;DHT22;6474;53.474;9.894;2024-03-25T11:55:39;10.70;86.40
12819;DHT22;6474;53.474;9.894;2024-03-25T11:58:06;10.70;87.20
12819;DHT22;6474;53.474;9.894;2024-03-25T12:00:32;10.70;86.40
12819;DHT22;6474;53.474;9.894;2024-03-25T12:02:58;10.60;86.40
12819;DHT22;6474;53.474;9.894;2024-03-25T12:05:26;10.50;86.30
12819;DHT22;6474;53.474;9.894;2024-03-25T12:07:52;10.40;86.40
12819;DHT22;6474;53.474;9.894;2024-03-25T12:10:18;10.40;86.70
12819;DHT22;6474;53.474;9.894;2024-03-25T12:13:03;10.60;87.00
12819;DHT22;6474;53.474;9.894;2024-03-25T12:15:29;10.80;86.90
12819;DHT22;6474;53.474;9.894;2024-03-25T12:17:55;11.00;87.00
12819;DHT22;6474;53.474;9.894;2024-03-25T12:20:21;11.10;86.90
12819;DHT22;6474;53.474;9.894;2024-03-25T12:22:49;11.20;86.60
12819;DHT22;6474;53.474;9.894;2024-03-25T12:25:15;11.10;86.10
12819;DHT22;6474;53.474;9.894;2024-03-25T12:27:41;10.90;85.80
12819;DHT22;6474;53.474;9.894;2024-03-25T12:30:12;10.60;85.50
12819;DHT22;6474;53.474;9.894;2024-03-25T12:32:38;10.30;85.30
12819;DHT22;6474;53.474;9.894;2024-03-25T12:35:08;10.10;85.30
12819;DHT22;6474;53.474;9.894;2024-03-25T12:37:36;9.90;86.70
12819;DHT22;6474;53.474;9.894;2024-03-25T12:40:06;9.60;86.90
12819;DHT22;6474;53.474;9.894;2024-03-25T12:42:37;9.50;87.40
12819;DHT22;6474;53.474;9.894;2024-03-25T12:45:04;9.40;87.80
12819;DHT22;6474;53.474;9.894;2024-03-25T12:47:30;9.40;87.90
12819;DHT22;6474;53.474;9.894;2024-03-25T12:49:56;9.40;87.90
12819;DHT22;6474;53.474;9.894;2024-03-25T12:52:22;9.50;88.00
12819;DHT22;6474;53.474;9.894;2024-03-25T12:54:48;9.60;88.10
12819;DHT22;6474;53.474;9.894;2024-03-25T12:57:16;9.70;87.70
12819;DHT22;6474;53.474;9.894;2024-03-25T12:59:42;9.80;87.50
12819;DHT22;6474;53.474;9.894;2024-03-25T13:02:10;10.00;86.20
12819;DHT22;6474;53.474;9.894;2024-03-25T13:04:37;10.00;85.80
12819;DHT22;6474;53.474;9.894;2024-03-25T13:07:03;10.10;85.80
12819;DHT22;6474;53.474;9.894;2024-03-25T13:09:29;10.20;85.90
12819;DHT22;6474;53.474;9.894;2024-03-25T13:11:55;10.30;86.00
12819;DHT22;6474;53.474;9.894;2024-03-25T13:14:23;10.40;86.00
12819;DHT22;6474;53.474;9.894;2024-03-25T13:16:49;10.50;86.00
12819;DHT22;6474;53.474;9.894;2024-03-25T13:19:15;10.60;86.00
12819;DHT22;6474;53.474;9.894;2024-03-25T13:21:41;10.50;85.80
12819;DHT22;6474;53.474;9.894;2024-03-25T13:24:08;10.50;85.80
12819;DHT22;6474;53.474;9.894;2024-03-25T13:26:34;10.40;85.80
12819;DHT22;6474;53.474;9.894;2024-03-25T13:29:00;10.30;85.60
12819;DHT22;6474;53.474;9.894;2024-03-25T13:31:28;10.10;85.40
12819;DHT22;6474;53.474;9.894;2024-03-25T13:33:54;10.00;85.60
12819;DHT22;6474;53.474;9.894;2024-03-25T13:36:20;9.90;86.80
12819;DHT22;6474;53.474;9.894;2024-03-25T13:38:46;9.70;86.60
12819;DHT22;6474;53.474;9.894;2024-03-25T13:41:12;9.50;86.70
12819;DHT22;6474;53.474;9.894;2024-03-25T13:43:42;9.40;86.90
12819;DHT22;6474;53.474;9.894;2024-03-25T13:46:09;9.30;87.40
12819;DHT22;6474;53.474;9.894;2024-03-25T13:48:36;9.30;87.80
12819;DHT22;6474;53.474;9.894;2024-03-25T13:51:03;9.40;87.90
12819;DHT22;6474;53.474;9.894;2024-03-25T13:53:29;9.60;88.40
12819;DHT22;6474;53.474;9.894;2024-03-25T13:55:55;9.80;88.50
12819;DHT22;6474;53.474;9.894;2024-03-25T13:58:21;10.00;87.30
12819;DHT22;6474;53.474;9.894;2024-03-25T14:00:47;10.10;86.90
12819;DHT22;6474;53.474;9.894;2024-03-25T14:03:13;10.10;86.30
12819;DHT22;6474;53.474;9.894;2024-03-25T14:05:40;10.20;86.10
12819;DHT22;6474;53.474;9.894;2024-03-25T14:08:06;10.20;85.90
12819;DHT22;6474;53.474;9.894;2024-03-25T14:10:32;10.30;86.10
12819;DHT22;6474;53.474;9.894;2024-03-25T14:12:58;10.30;86.10
12819;DHT22;6474;53.474;9.894;2024-03-25T14:15:24;10.30;85.80
12819;DHT22;6474;53.474;9.894;2024-03-25T14:17:50;10.40;85.70
12819;DHT22;6474;53.474;9.894;2024-03-25T14:20:17;10.40;85.60
12819;DHT22;6474;53.474;9.894;2024-03-25T14:22:44;10.40;85.50
12819;DHT22;6474;53.474;9.894;2024-03-25T14:25:10;10.50;85.70
12819;DHT22;6474;53.474;9.894;2024-03-25T14:27:36;10.50;85.70
12819;DHT22;6474;53.474;9.894;2024-03-25T14:30:02;10.60;85.80
12819;DHT22;6474;53.474;9.894;2024-03-25T14:32:28;10.60;85.80
12819;DHT22;6474;53.474;9.894;2024-03-25T14:34:54;10.70;85.90
12819;DHT22;6474;53.474;9.894;2024-03-25T14:37:20;10.80;86.00
12819;DHT22;6474;53.474;9.894;2024-03-25T14:39:48;10.80;85.90
12819;DHT22;6474;53.474;9.894;2024-03-25T14:42:14;10.70;85.90
12819;DHT22;6474;53.474;9.894;2024-03-25T14:44:40;10.70;86.10
12819;DHT22;6474;53.474;9.894;2024-03-25T14:47:06;10.70;86.20
12819;DHT22;6474;53.474;9.894;2024-03-25T14:49:32;10.70;86.40
12819;DHT22;6474;53.474;9.894;2024-03-25T14:51:58;10.80;86.50
12819;DHT22;6474;53.474;9.894;2024-03-25T14:54:33;10.80;86.20
12819;DHT22;6474;53.474;9.894;2024-03-25T14:57:01;10.90;86.10
12819;DHT22;6474;53.474;9.894;2024-03-25T14:59:27;10.80;85.90
12819;DHT22;6474;53.474;9.894;2024-03-25T15:01:53;10.70;85.60
12819;DHT22;6474;53.474;9.894;2024-03-25T15:04:19;10.60;85.50
12819;DHT22;6474;53.474;9.894;2024-03-25T15:06:45;10.50;85.50
12819;DHT22;6474;53.474;9.894;2024-03-25T15:09:11;10.50;85.50
12819;DHT22;6474;53.474;9.894;2024-03-25T15:11:37;10.30;85.30
12819;DHT22;6474;53.474;9.894;2024-03-25T15:14:04;10.30;85.30
12819;DHT22;6474;53.474;9.894;2024-03-25T15:16:30;10.20;85.40
12819;DHT22;6474;53.474;9.894;2024-03-25T15:18:56;10.20;85.40
12819;DHT22;6474;53.474;9.894;2024-03-25T15:21:22;10.10;85.10
12819;DHT22;6474;53.474;9.894;2024-03-25T15:23:48;10.00;85.00
12819;DHT22;6474;53.474;9.894;2024-03-25T15:26:15;10.00;85.00
12819;DHT22;6474;53.474;9.894;2024-03-25T15:28:41;9.90;86.30
12819;DHT22;6474;53.474;9.894;2024-03-25T15:31:08;9.80;86.30
12819;DHT22;6474;53.474;9.894;2024-03-25T15:33:34;9.80;86.40
12819;DHT22;6474;53.474;9.894;2024-03-25T15:36:00;9.90;86.70
12819;DHT22;6474;53.474;9.894;2024-03-25T15:38:26;9.90;86.70
12819;DHT22;6474;53.474;9.894;2024-03-25T15:40:52;9.80;86.70
12819;DHT22;6474;53.474;9.894;2024-03-25T15:43:18;9.90;86.80
12819;DHT22;6474;53.474;9.894;2024-03-25T15:45:53;9.90;86.60
12819;DHT22;6474;53.474;9.894;2024-03-25T15:48:21;9.90;86.60
12819;DHT22;6474;53.474;9.894;2024-03-25T15:50:47;9.90;86.50
12819;DHT22;6474;53.474;9.894;2024-03-25T15:53:13;9.90;86.50
12819;DHT22;6474;53.474;9.894;2024-03-25T15:55:39;9.90;86.40